createdAt,value
2023-04-27T00:01:44.026Z,100296.28
2023-04-27T00:04:11.166Z,100311.81
2023-04-27T00:06:38.337Z,100304.78
2023-04-27T00:09:05.402Z,100312.97
2023-04-27T00:11:32.554Z,100316.97
2023-04-27T00:13:59.556Z,100315.34
2023-04-27T00:16:26.749Z,100319.50
2023-04-27T00:18:54.100Z,100315.41
2023-04-27T00:21:21.249Z,100316.97
2023-04-27T00:23:48.316Z,100319.50
2023-04-27T00:26:15.340Z,100313.69
2023-04-27T00:28:42.358Z,100314.56
2023-04-27T00:31:09.387Z,100310.41
2023-04-27T00:33:36.406Z,100316.97
2023-04-27T00:36:03.679Z,100317.84
2023-04-27T00:38:31.348Z,100311.97
2023-04-27T00:41:07.747Z,100321.44
2023-04-27T00:43:43.849Z,100319.56
2023-04-27T00:46:13.915Z,100323.56
2023-04-27T00:48:42.109Z,100321.09
2023-04-27T00:51:09.196Z,100324.69
2023-04-27T00:53:37.661Z,100330.31
2023-04-27T00:56:08.088Z,100325.25
2023-04-27T00:58:35.190Z,100328.59
2023-04-27T01:01:02.366Z,100331.47
2023-04-27T01:03:30.727Z,100330.56
2023-04-27T01:06:01.547Z,100341.78
2023-04-27T01:08:29.923Z,100335.56
2023-04-27T01:10:57.189Z,100328.34
2023-04-27T01:13:24.408Z,100344.28
2023-04-27T01:15:51.451Z,100331.31
2023-04-27T01:18:18.557Z,100335.00
2023-04-27T01:20:45.569Z,100346.03
2023-04-27T01:23:17.299Z,100339.31
2023-04-27T01:25:44.867Z,100334.94
2023-04-27T01:28:12.025Z,100339.53
2023-04-27T01:30:39.271Z,100339.09
2023-04-27T01:33:06.360Z,100340.81
2023-04-27T01:35:33.391Z,100343.88
2023-04-27T01:38:01.419Z,100348.38
2023-04-27T01:40:28.576Z,100346.22
2023-04-27T01:42:56.171Z,100342.25
2023-04-27T01:45:23.293Z,100338.66
2023-04-27T01:47:53.615Z,100346.22
2023-04-27T01:50:20.970Z,100348.75
2023-04-27T01:52:47.990Z,100347.75
2023-04-27T01:55:15.072Z,100351.72
2023-04-27T01:57:42.076Z,100348.75
2023-04-27T02:00:09.824Z,100353.19
2023-04-27T02:02:36.927Z,100347.28
2023-04-27T02:05:04.478Z,100354.06
2023-04-27T02:07:31.547Z,100354.78
2023-04-27T02:09:58.561Z,100348.38
2023-04-27T02:12:25.591Z,100354.69
2023-04-27T02:14:52.581Z,100351.00
2023-04-27T02:17:19.574Z,100358.03
2023-04-27T02:19:46.565Z,100357.22
2023-04-27T02:22:13.668Z,100354.53
2023-04-27T02:24:40.629Z,100347.03
2023-04-27T02:27:07.660Z,100347.75
2023-04-27T02:29:38.914Z,100346.75
2023-04-27T02:32:07.330Z,100350.63
2023-04-27T02:34:34.398Z,100344.41
2023-04-27T02:37:01.473Z,100348.22
2023-04-27T02:39:28.494Z,100351.38
2023-04-27T02:41:55.482Z,100359.22
2023-04-27T02:44:22.514Z,100356.31
2023-04-27T02:46:50.729Z,100363.44
2023-04-27T02:49:17.753Z,100367.56
2023-04-27T02:51:44.849Z,100363.97
2023-04-27T02:54:12.020Z,100358.19
2023-04-27T02:56:39.120Z,100357.84
2023-04-27T02:59:06.179Z,100361.19
2023-04-27T03:01:33.207Z,100374.66
2023-04-27T03:04:00.573Z,100358.72
2023-04-27T03:06:27.792Z,100361.53
2023-04-27T03:08:54.749Z,100363.59
2023-04-27T03:11:21.740Z,100361.72
2023-04-27T03:13:48.726Z,100362.06
2023-04-27T03:16:15.790Z,100363.53
2023-04-27T03:18:42.841Z,100362.69
2023-04-27T03:21:13.533Z,100368.28
2023-04-27T03:23:40.791Z,100373.41
2023-04-27T03:26:09.873Z,100365.09
2023-04-27T03:28:38.397Z,100365.38
2023-04-27T03:31:07.482Z,100373.59
2023-04-27T03:33:35.015Z,100369.91
2023-04-27T03:36:02.653Z,100372.53
2023-04-27T03:38:30.292Z,100365.44
2023-04-27T03:40:57.993Z,100368.03
2023-04-27T03:43:26.168Z,100371.75
2023-04-27T03:45:53.726Z,100378.69
2023-04-27T03:48:21.054Z,100377.75
2023-04-27T03:50:48.330Z,100386.41
2023-04-27T03:53:15.922Z,100386.63
2023-04-27T03:55:44.791Z,100391.00
2023-04-27T03:58:12.384Z,100392.06
2023-04-27T04:00:40.101Z,100399.03
2023-04-27T04:03:08.149Z,100394.13
2023-04-27T04:05:35.575Z,100400.41
2023-04-27T04:08:02.666Z,100402.50
2023-04-27T04:10:29.743Z,100393.88
2023-04-27T04:12:56.777Z,100391.94
2023-04-27T04:15:23.858Z,100386.47
2023-04-27T04:17:51.301Z,100398.66
2023-04-27T04:20:18.554Z,100397.66
2023-04-27T04:22:45.674Z,100406.00
2023-04-27T04:25:13.183Z,100397.75
2023-04-27T04:27:41.131Z,100406.44
2023-04-27T04:30:08.786Z,100405.41
2023-04-27T04:32:38.129Z,100406.78
2023-04-27T04:35:08.633Z,100404.00
2023-04-27T04:37:36.525Z,100404.09
2023-04-27T04:40:10.974Z,100407.91
2023-04-27T04:42:38.570Z,100403.97
2023-04-27T04:45:07.317Z,100392.03
2023-04-27T04:47:34.691Z,100393.50
2023-04-27T04:50:02.153Z,100398.94
2023-04-27T04:52:29.353Z,100391.59
2023-04-27T04:54:56.411Z,100394.81
2023-04-27T04:57:23.522Z,100393.50
2023-04-27T04:59:50.925Z,100392.16
2023-04-27T05:02:17.976Z,100400.53
2023-04-27T05:04:45.781Z,100401.88
2023-04-27T05:07:14.909Z,100404.38
2023-04-27T05:09:42.618Z,100403.47
2023-04-27T05:12:10.260Z,100402.78
2023-04-27T05:14:37.331Z,100410.56
2023-04-27T05:17:04.378Z,100413.91
2023-04-27T05:19:31.795Z,100417.16
2023-04-27T05:21:59.430Z,100415.28
2023-04-27T05:24:27.194Z,100411.63
2023-04-27T05:26:54.992Z,100414.00
2023-04-27T05:29:22.794Z,100412.81
2023-04-27T05:31:49.879Z,100418.19
2023-04-27T05:34:17.062Z,100415.94
2023-04-27T05:36:44.178Z,100420.38
2023-04-27T05:39:11.346Z,100421.19
2023-04-27T05:41:38.711Z,100417.22
2023-04-27T05:44:06.648Z,100416.56
2023-04-27T05:46:33.821Z,100423.75
2023-04-27T05:49:01.604Z,100428.91
2023-04-27T05:51:28.971Z,100418.41
2023-04-27T05:53:56.033Z,100413.38
2023-04-27T05:56:23.296Z,100423.38
2023-04-27T05:58:50.300Z,100422.88
2023-04-27T06:01:17.420Z,100425.59
2023-04-27T06:03:44.652Z,100428.88
2023-04-27T06:06:11.879Z,100433.25
2023-04-27T06:08:39.587Z,100426.19
2023-04-27T06:11:06.975Z,100425.06
2023-04-27T06:13:34.179Z,100425.25
2023-04-27T06:16:01.971Z,100422.72
2023-04-27T06:18:29.180Z,100426.09
2023-04-27T06:21:02.778Z,100423.69
2023-04-27T06:23:30.034Z,100424.16
2023-04-27T06:25:58.840Z,100423.16
2023-04-27T06:28:26.289Z,100427.75
2023-04-27T06:30:54.663Z,100426.78
2023-04-27T06:33:21.916Z,100425.97
2023-04-27T06:35:48.946Z,100428.19
2023-04-27T06:38:16.705Z,100433.44
2023-04-27T06:40:44.931Z,100431.28
2023-04-27T06:43:11.923Z,100433.19
2023-04-27T06:45:38.875Z,100435.25
2023-04-27T06:48:06.080Z,100439.47
2023-04-27T06:50:33.173Z,100444.25
2023-04-27T06:53:00.195Z,100432.38
2023-04-27T06:55:27.207Z,100442.88
2023-04-27T06:57:54.233Z,100434.38
2023-04-27T07:00:21.619Z,100432.53
2023-04-27T07:02:48.714Z,100440.91
2023-04-27T07:05:16.462Z,100442.41
2023-04-27T07:07:43.492Z,100443.78
2023-04-27T07:10:11.102Z,100437.94
2023-04-27T07:12:38.695Z,100439.56
2023-04-27T07:15:07.270Z,100440.72
2023-04-27T07:17:34.470Z,100443.88
2023-04-27T07:20:06.441Z,100445.25
2023-04-27T07:22:33.816Z,100455.56
2023-04-27T07:25:01.034Z,100448.16
2023-04-27T07:27:28.170Z,100456.22
2023-04-27T07:29:55.279Z,100452.38
2023-04-27T07:32:22.907Z,100458.34
2023-04-27T07:34:54.207Z,100458.94
2023-04-27T07:37:22.932Z,100456.28
2023-04-27T07:39:52.088Z,100452.25
2023-04-27T07:42:22.320Z,100455.09
2023-04-27T07:44:50.391Z,100455.38
2023-04-27T07:47:20.507Z,100450.91
2023-04-27T07:49:48.123Z,100451.72
2023-04-27T07:52:15.952Z,100456.50
2023-04-27T07:54:43.280Z,100451.78
2023-04-27T07:57:11.883Z,100451.63
2023-04-27T07:59:39.729Z,100455.84
2023-04-27T08:02:19.275Z,100456.38
2023-04-27T08:04:48.594Z,100458.06
2023-04-27T08:07:17.556Z,100451.50
2023-04-27T08:09:44.895Z,100454.44
2023-04-27T08:12:11.946Z,100445.88
2023-04-27T08:14:38.982Z,100448.28
2023-04-27T08:17:06.390Z,100451.53
2023-04-27T08:19:33.537Z,100453.72
2023-04-27T08:22:01.116Z,100465.31
2023-04-27T08:24:28.118Z,100462.22
2023-04-27T08:26:55.253Z,100458.03
2023-04-27T08:29:27.781Z,100449.84
2023-04-27T08:31:58.682Z,100466.63
2023-04-27T08:34:26.070Z,100457.34
2023-04-27T08:36:54.174Z,100465.78
2023-04-27T08:39:21.908Z,100473.03
2023-04-27T08:41:49.110Z,100468.50
2023-04-27T08:44:16.269Z,100464.78
2023-04-27T08:46:44.555Z,100474.53
2023-04-27T08:49:12.754Z,100469.97
2023-04-27T08:51:41.652Z,100475.41
2023-04-27T08:54:08.853Z,100470.63
2023-04-27T08:56:35.883Z,100474.31
2023-04-27T08:59:05.807Z,100477.97
2023-04-27T09:01:34.453Z,100479.88
2023-04-27T09:04:02.406Z,100480.94
2023-04-27T09:06:34.797Z,100482.50
2023-04-27T09:09:03.423Z,100479.00
2023-04-27T09:11:40.845Z,100476.88
2023-04-27T09:14:20.310Z,100480.94
2023-04-27T09:16:59.418Z,100481.19
2023-04-27T09:19:30.830Z,100492.56
2023-04-27T09:22:11.199Z,100482.34
2023-04-27T09:24:38.463Z,100477.09
2023-04-27T09:27:08.945Z,100482.66
2023-04-27T09:29:38.156Z,100481.66
2023-04-27T09:32:20.745Z,100490.25
2023-04-27T09:34:48.178Z,100478.53
2023-04-27T09:37:15.711Z,100477.69
2023-04-27T09:39:43.470Z,100477.69
2023-04-27T09:42:12.627Z,100480.13
2023-04-27T09:44:39.804Z,100476.25
2023-04-27T09:47:07.444Z,100472.09
2023-04-27T09:49:36.339Z,100472.72
2023-04-27T09:52:04.245Z,100474.38
2023-04-27T09:54:34.568Z,100476.06
2023-04-27T09:57:37.545Z,100476.50
2023-04-27T10:00:26.389Z,100475.03
2023-04-27T10:03:11.973Z,100479.19
2023-04-27T10:06:04.739Z,100483.31
2023-04-27T10:08:35.848Z,100481.50
2023-04-27T10:11:15.565Z,100476.47
2023-04-27T10:13:54.445Z,100481.69
2023-04-27T10:16:22.488Z,100484.72
2023-04-27T10:18:56.260Z,100483.44
2023-04-27T10:21:23.915Z,100485.41
2023-04-27T10:23:52.458Z,100486.16
2023-04-27T10:26:27.908Z,100479.03
2023-04-27T10:29:09.227Z,100479.03
2023-04-27T10:31:43.341Z,100472.81
2023-04-27T10:34:20.581Z,100474.44
2023-04-27T10:36:48.444Z,100475.84
2023-04-27T10:39:27.612Z,100472.16
2023-04-27T10:41:59.988Z,100475.03
2023-04-27T10:44:29.853Z,100479.84
2023-04-27T10:47:02.551Z,100467.88
2023-04-27T10:49:30.689Z,100478.88
2023-04-27T10:51:59.633Z,100493.94
2023-04-27T10:54:30.184Z,100481.31
2023-04-27T10:57:09.194Z,100489.72
2023-04-27T10:59:49.859Z,100487.88
2023-04-27T11:02:17.537Z,100500.94
2023-04-27T11:04:44.627Z,100493.28
2023-04-27T11:07:12.353Z,100492.94
2023-04-27T11:09:42.598Z,100503.66
2023-04-27T11:12:13.911Z,100502.47
2023-04-27T11:14:41.084Z,100502.38
2023-04-27T11:17:09.190Z,100498.91
2023-04-27T11:19:48.694Z,100508.88
2023-04-27T11:22:19.213Z,100505.94
2023-04-27T11:24:50.987Z,100509.22
2023-04-27T11:27:19.180Z,100497.09
2023-04-27T11:29:46.574Z,100510.06
2023-04-27T11:32:23.917Z,100501.94
2023-04-27T11:34:56.067Z,100498.72
2023-04-27T11:37:27.675Z,100495.94
2023-04-27T11:39:57.477Z,100492.34
2023-04-27T11:42:28.936Z,100499.84
2023-04-27T11:45:00.570Z,100488.03
2023-04-27T11:47:30.503Z,100496.16
2023-04-27T11:50:01.237Z,100494.59
2023-04-27T11:52:33.471Z,100492.66
2023-04-27T11:55:02.627Z,100485.38
2023-04-27T11:57:32.910Z,100485.25
2023-04-27T12:00:02.609Z,100490.22
2023-04-27T12:02:31.477Z,100502.56
2023-04-27T12:04:59.952Z,100505.78
2023-04-27T12:07:27.280Z,100499.63
2023-04-27T12:09:54.499Z,100493.16
2023-04-27T12:12:24.388Z,100504.22
2023-04-27T12:14:51.987Z,100493.06
2023-04-27T12:17:19.679Z,100501.53
2023-04-27T12:19:46.706Z,100501.53
2023-04-27T12:22:14.504Z,100503.28
2023-04-27T12:24:41.474Z,100505.47
2023-04-27T12:27:08.609Z,100507.91
2023-04-27T12:29:35.645Z,100506.25
2023-04-27T12:32:02.622Z,100501.78
2023-04-27T12:34:29.714Z,100503.97
2023-04-27T12:36:56.958Z,100496.66
2023-04-27T12:39:27.041Z,100501.84
2023-04-27T12:41:54.883Z,100499.25
2023-04-27T12:44:22.760Z,100496.84
2023-04-27T12:46:50.613Z,100500.50
2023-04-27T12:49:18.114Z,100501.06
2023-04-27T12:51:47.931Z,100496.16
2023-04-27T12:54:15.265Z,100503.09
2023-04-27T12:56:42.371Z,100494.78
2023-04-27T12:59:09.934Z,100502.94
2023-04-27T13:01:37.366Z,100504.31
2023-04-27T13:04:06.367Z,100507.25
2023-04-27T13:06:33.627Z,100502.97
2023-04-27T13:09:00.641Z,100516.50
2023-04-27T13:11:27.820Z,100499.22
2023-04-27T13:13:57.962Z,100516.91
2023-04-27T13:16:25.817Z,100512.00
2023-04-27T13:18:55.484Z,100512.97
2023-04-27T13:21:23.330Z,100510.53
2023-04-27T13:23:51.279Z,100521.63
2023-04-27T13:26:19.125Z,100524.41
2023-04-27T13:28:46.240Z,100518.31
2023-04-27T13:31:13.338Z,100524.28
2023-04-27T13:33:43.168Z,100521.22
2023-04-27T13:36:11.541Z,100517.41
2023-04-27T13:38:39.013Z,100524.69
2023-04-27T13:41:06.768Z,100530.34
2023-04-27T13:43:34.192Z,100528.75
2023-04-27T13:46:02.528Z,100530.16
2023-04-27T13:48:30.497Z,100526.28
2023-04-27T13:50:57.889Z,100524.19
2023-04-27T13:53:25.980Z,100532.97
2023-04-27T13:55:57.458Z,100535.13
2023-04-27T13:58:27.296Z,100532.25
2023-04-27T14:00:54.818Z,100533.22
2023-04-27T14:03:22.903Z,100533.38
2023-04-27T14:05:51.426Z,100533.50
2023-04-27T14:08:18.902Z,100540.59
2023-04-27T14:10:46.322Z,100524.84
2023-04-27T14:13:13.636Z,100532.44
2023-04-27T14:15:41.814Z,100532.44
2023-04-27T14:18:09.820Z,100529.25
2023-04-27T14:20:38.794Z,100529.91
2023-04-27T14:23:06.961Z,100533.28
2023-04-27T14:25:34.970Z,100523.81
2023-04-27T14:28:06.871Z,100531.34
2023-04-27T14:30:35.058Z,100536.28
2023-04-27T14:33:02.873Z,100525.75
2023-04-27T14:35:30.251Z,100537.88
2023-04-27T14:38:01.981Z,100534.06
2023-04-27T14:40:30.858Z,100544.84
2023-04-27T14:42:58.718Z,100548.06
2023-04-27T14:45:30.972Z,100549.53
2023-04-27T14:48:00.962Z,100542.13
2023-04-27T14:50:28.679Z,100553.69
2023-04-27T14:52:58.782Z,100553.00
2023-04-27T14:55:26.029Z,100552.81
2023-04-27T14:57:53.048Z,100553.22
2023-04-27T15:00:20.330Z,100561.09
2023-04-27T15:02:47.354Z,100564.63
2023-04-27T15:05:14.395Z,100565.41
2023-04-27T15:07:41.596Z,100563.16
2023-04-27T15:10:09.447Z,100568.75
2023-04-27T15:12:36.484Z,100561.63
2023-04-27T15:15:03.757Z,100564.16
2023-04-27T15:17:30.888Z,100563.94
2023-04-27T15:19:57.972Z,100554.09
2023-04-27T15:22:25.046Z,100562.94
2023-04-27T15:24:52.853Z,100559.13
2023-04-27T15:27:19.964Z,100561.06
2023-04-27T15:29:46.926Z,100559.84
2023-04-27T15:32:13.900Z,100560.94
2023-04-27T15:34:44.483Z,100568.69
2023-04-27T15:37:11.811Z,100569.91
2023-04-27T15:39:38.863Z,100566.00
2023-04-27T15:42:06.046Z,100566.44
2023-04-27T15:44:33.182Z,100568.94
2023-04-27T15:47:00.275Z,100573.06
2023-04-27T15:49:27.694Z,100581.97
2023-04-27T15:51:55.452Z,100576.81
2023-04-27T15:54:22.640Z,100583.75
2023-04-27T15:56:49.684Z,100584.44
2023-04-27T15:59:16.896Z,100579.88
2023-04-27T16:01:44.169Z,100589.00
2023-04-27T16:04:11.574Z,100591.63
2023-04-27T16:06:39.088Z,100586.09
2023-04-27T16:09:10.413Z,100590.44
2023-04-27T16:11:38.044Z,100595.25
2023-04-27T16:14:05.191Z,100594.50
2023-04-27T16:16:32.439Z,100598.56
2023-04-27T16:18:59.553Z,100590.94
2023-04-27T16:21:28.124Z,100594.44
2023-04-27T16:23:55.104Z,100583.78
2023-04-27T16:26:22.101Z,100597.94
2023-04-27T16:28:49.166Z,100593.84
2023-04-27T16:31:16.234Z,100585.38
2023-04-27T16:33:43.235Z,100595.84
2023-04-27T16:36:11.375Z,100595.69
2023-04-27T16:38:39.512Z,100592.31
2023-04-27T16:41:06.588Z,100596.25
2023-04-27T16:43:33.985Z,100590.75
2023-04-27T16:46:01.288Z,100589.22
2023-04-27T16:48:28.483Z,100598.56
2023-04-27T16:50:56.372Z,100599.66
2023-04-27T16:53:23.719Z,100614.63
2023-04-27T16:55:50.750Z,100610.97
2023-04-27T16:58:17.839Z,100616.81
2023-04-27T17:00:45.027Z,100611.44
2023-04-27T17:03:12.220Z,100620.13
2023-04-27T17:05:39.438Z,100624.75
2023-04-27T17:08:06.478Z,100623.53
2023-04-27T17:10:33.571Z,100620.97
2023-04-27T17:13:00.614Z,100620.22
2023-04-27T17:15:28.776Z,100616.75
2023-04-27T17:17:56.388Z,100623.00
2023-04-27T17:20:23.429Z,100617.38
2023-04-27T17:22:50.482Z,100621.00
2023-04-27T17:25:17.759Z,100615.72
2023-04-27T17:27:44.828Z,100616.47
2023-04-27T17:30:12.215Z,100613.06
2023-04-27T17:32:39.486Z,100606.44
2023-04-27T17:35:07.269Z,100606.88
2023-04-27T17:37:34.226Z,100612.78
2023-04-27T17:40:01.225Z,100612.41
2023-04-27T17:42:28.227Z,100610.97
2023-04-27T17:44:55.624Z,100614.47
2023-04-27T17:47:25.367Z,100608.16
2023-04-27T17:49:52.581Z,100619.47
2023-04-27T17:52:19.639Z,100618.03
2023-04-27T17:54:48.171Z,100616.81
2023-04-27T17:57:15.153Z,100626.44
2023-04-27T17:59:42.168Z,100620.75
2023-04-27T18:02:09.272Z,100627.03
2023-04-27T18:04:36.647Z,100627.03
2023-04-27T18:07:03.876Z,100628.31
2023-04-27T18:09:32.935Z,100632.78
2023-04-27T18:12:00.746Z,100636.97
2023-04-27T18:14:27.835Z,100642.56
2023-04-27T18:16:55.010Z,100652.53
2023-04-27T18:19:22.583Z,100654.97
2023-04-27T18:21:49.598Z,100660.72
2023-04-27T18:24:16.593Z,100651.91
2023-04-27T18:26:43.576Z,100645.63
2023-04-27T18:29:10.596Z,100656.88
2023-04-27T18:31:38.074Z,100665.94
2023-04-27T18:34:05.163Z,100665.75
2023-04-27T18:36:32.345Z,100658.75
2023-04-27T18:38:59.714Z,100662.97
2023-04-27T18:41:26.685Z,100673.16
2023-04-27T18:43:53.811Z,100667.13
2023-04-27T18:46:21.081Z,100671.25
2023-04-27T18:48:48.225Z,100667.03
2023-04-27T18:51:15.202Z,100668.84
2023-04-27T18:53:42.160Z,100671.25
2023-04-27T18:56:10.259Z,100671.94
2023-04-27T18:58:37.277Z,100675.25
2023-04-27T19:01:04.361Z,100669.25
2023-04-27T19:03:31.767Z,100664.22
2023-04-27T19:05:58.952Z,100659.78
2023-04-27T19:08:25.958Z,100667.44
2023-04-27T19:10:52.956Z,100672.31
2023-04-27T19:13:19.913Z,100661.53
2023-04-27T19:15:46.946Z,100668.91
2023-04-27T19:18:13.984Z,100675.34
2023-04-27T19:20:40.978Z,100669.22
2023-04-27T19:23:09.610Z,100669.53
2023-04-27T19:25:37.274Z,100657.91
2023-04-27T19:28:05.060Z,100672.69
2023-04-27T19:30:32.116Z,100668.00
2023-04-27T19:32:59.153Z,100667.44
2023-04-27T19:35:27.685Z,100679.53
2023-04-27T19:37:54.774Z,100674.56
2023-04-27T19:40:21.938Z,100686.03
2023-04-27T19:42:49.786Z,100681.31
2023-04-27T19:45:18.070Z,100680.75
2023-04-27T19:47:46.156Z,100684.63
2023-04-27T19:50:13.331Z,100683.19
2023-04-27T19:52:40.634Z,100685.25
2023-04-27T19:55:08.448Z,100669.13
2023-04-27T19:57:35.622Z,100687.94
2023-04-27T20:00:05.256Z,100681.56
2023-04-27T20:02:32.936Z,100685.88
2023-04-27T20:05:00.182Z,100684.50
2023-04-27T20:07:27.425Z,100686.81
2023-04-27T20:09:54.415Z,100680.97
2023-04-27T20:12:43.494Z,100689.69
2023-04-27T20:15:09.648Z,100688.09
2023-04-27T20:17:36.757Z,100693.59
2023-04-27T20:20:10.511Z,100689.69
2023-04-27T20:22:38.378Z,100699.47
2023-04-27T20:25:06.638Z,100692.94
2023-04-27T20:27:35.434Z,100692.41
2023-04-27T20:30:02.673Z,100689.09
2023-04-27T20:32:29.665Z,100687.38
2023-04-27T20:34:56.638Z,100695.63
2023-04-27T20:37:24.841Z,100703.44
2023-04-27T20:39:52.213Z,100699.94
2023-04-27T20:42:19.235Z,100705.31
2023-04-27T20:44:46.384Z,100706.16
2023-04-27T20:47:14.775Z,100709.59
2023-04-27T20:49:42.262Z,100713.09
2023-04-27T20:52:09.355Z,100710.06
2023-04-27T20:54:36.580Z,100714.44
2023-04-27T20:57:08.539Z,100699.59
2023-04-27T20:59:35.569Z,100705.63
2023-04-27T21:02:02.833Z,100707.00
2023-04-27T21:04:29.994Z,100707.25
2023-04-27T21:06:57.105Z,100710.53
2023-04-27T21:09:24.119Z,100716.84
2023-04-27T21:11:51.150Z,100715.50
2023-04-27T21:14:18.163Z,100711.63
2023-04-27T21:16:45.215Z,100719.69
2023-04-27T21:19:14.772Z,100710.16
2023-04-27T21:21:42.063Z,100718.06
2023-04-27T21:24:09.208Z,100714.91
2023-04-27T21:26:36.340Z,100713.50
2023-04-27T21:29:05.739Z,100721.63
2023-04-27T21:31:34.122Z,100714.16
2023-04-27T21:34:03.557Z,100722.44
2023-04-27T21:36:30.690Z,100720.91
2023-04-27T21:38:57.671Z,100721.91
2023-04-27T21:41:24.730Z,100721.44
2023-04-27T21:43:51.779Z,100728.50
2023-04-27T21:46:18.882Z,100723.31
2023-04-27T21:48:46.065Z,100728.47
2023-04-27T21:51:13.004Z,100725.13
2023-04-27T21:53:40.016Z,100735.50
2023-04-27T21:56:07.561Z,100730.91
2023-04-27T21:58:34.660Z,100729.56
2023-04-27T22:01:01.772Z,100728.44
2023-04-27T22:03:29.054Z,100737.19
2023-04-27T22:05:57.598Z,100738.44
2023-04-27T22:08:24.764Z,100734.41
2023-04-27T22:10:51.960Z,100735.16
2023-04-27T22:13:19.798Z,100740.28
2023-04-27T22:15:48.420Z,100739.84
2023-04-27T22:18:15.845Z,100740.84
2023-04-27T22:20:43.189Z,100744.72
2023-04-27T22:23:10.823Z,100747.66
2023-04-27T22:25:37.904Z,100747.66
2023-04-27T22:28:05.147Z,100739.22
2023-04-27T22:30:32.196Z,100740.41
2023-04-27T22:32:59.244Z,100755.59
2023-04-27T22:35:27.797Z,100754.53
2023-04-27T22:37:56.085Z,100755.09
2023-04-27T22:40:23.394Z,100753.91
2023-04-27T22:42:50.785Z,100747.81
2023-04-27T22:45:17.868Z,100745.41
2023-04-27T22:47:46.033Z,100734.31
2023-04-27T22:50:13.809Z,100748.66
2023-04-27T22:52:44.397Z,100744.34
2023-04-27T22:55:12.829Z,100742.06
2023-04-27T22:57:41.867Z,100740.16
2023-04-27T23:00:11.493Z,100743.78
2023-04-27T23:02:40.542Z,100754.38
2023-04-27T23:05:08.904Z,100746.34
2023-04-27T23:07:36.298Z,100756.19
2023-04-27T23:10:03.625Z,100749.13
2023-04-27T23:12:31.386Z,100751.91
2023-04-27T23:15:01.390Z,100759.22
2023-04-27T23:17:31.282Z,100752.78
2023-04-27T23:20:11.247Z,100753.72
2023-04-27T23:22:44.322Z,100751.41
2023-04-27T23:25:11.710Z,100756.53
2023-04-27T23:27:38.760Z,100748.91
2023-04-27T23:30:06.762Z,100747.44
2023-04-27T23:32:36.113Z,100750.88
2023-04-27T23:35:03.197Z,100755.63
2023-04-27T23:37:30.180Z,100753.19
2023-04-27T23:39:57.144Z,100754.44
2023-04-27T23:42:24.138Z,100743.81
2023-04-27T23:44:51.332Z,100744.94
2023-04-27T23:47:18.445Z,100754.03
2023-04-27T23:49:45.682Z,100749.16
2023-04-27T23:52:12.648Z,100752.31
2023-04-27T23:54:39.654Z,100745.03
2023-04-27T23:57:06.741Z,100750.09
2023-04-27T23:59:35.435Z,100749.72
